createdAt,value
2023-04-23T00:01:53.572Z,13.30
2023-04-23T00:04:23.441Z,13.30
2023-04-23T00:06:52.984Z,13.20
2023-04-23T00:09:23.715Z,13.10
2023-04-23T00:11:53.710Z,13.10
2023-04-23T00:14:22.085Z,13.00
2023-04-23T00:16:50.636Z,13.00
2023-04-23T00:19:18.717Z,12.90
2023-04-23T00:21:47.022Z,13.00
2023-04-23T00:24:15.006Z,12.90
2023-04-23T00:26:43.063Z,12.90
2023-04-23T00:29:12.826Z,12.80
2023-04-23T00:31:41.287Z,12.90
2023-04-23T00:34:09.436Z,12.80
2023-04-23T00:36:37.638Z,12.80
2023-04-23T00:39:05.947Z,12.70
2023-04-23T00:41:34.936Z,12.70
2023-04-23T00:44:03.206Z,12.60
2023-04-23T00:46:32.661Z,12.60
2023-04-23T00:49:01.608Z,12.60
2023-04-23T00:51:30.164Z,12.60
2023-04-23T00:53:58.178Z,12.60
2023-04-23T00:56:27.763Z,12.60
2023-04-23T00:58:57.109Z,12.60
2023-04-23T01:01:26.091Z,12.60
2023-04-23T01:03:56.631Z,12.60
2023-04-23T01:06:28.638Z,12.50
2023-04-23T01:08:56.956Z,12.50
2023-04-23T01:11:25.370Z,12.50
2023-04-23T01:13:53.435Z,12.50
2023-04-23T01:16:22.176Z,12.50
2023-04-23T01:18:50.278Z,12.50
2023-04-23T01:21:20.481Z,12.40
2023-04-23T01:23:50.105Z,12.50
2023-04-23T01:26:19.083Z,12.50
2023-04-23T01:28:47.894Z,12.40
2023-04-23T01:31:16.174Z,12.40
2023-04-23T01:33:45.407Z,12.50
2023-04-23T01:36:14.069Z,12.50
2023-04-23T01:38:42.414Z,12.50
2023-04-23T01:41:12.028Z,12.40
2023-04-23T01:43:41.055Z,12.40
2023-04-23T01:46:09.462Z,12.30
2023-04-23T01:48:38.107Z,12.20
2023-04-23T01:51:06.367Z,12.20
2023-04-23T01:53:34.361Z,12.10
2023-04-23T01:56:03.352Z,12.00
2023-04-23T01:58:32.762Z,11.90
2023-04-23T02:01:00.758Z,11.90
2023-04-23T02:03:32.192Z,11.80
2023-04-23T02:06:01.222Z,11.80
2023-04-23T02:08:29.422Z,11.80
2023-04-23T02:10:57.551Z,11.70
2023-04-23T02:13:25.598Z,11.70
2023-04-23T02:15:55.008Z,11.60
2023-04-23T02:18:23.076Z,11.60
2023-04-23T02:20:51.192Z,11.60
2023-04-23T02:23:19.316Z,11.50
2023-04-23T02:25:47.377Z,11.50
2023-04-23T02:28:15.430Z,11.50
2023-04-23T02:30:46.665Z,11.50
2023-04-23T02:33:16.148Z,11.40
2023-04-23T02:35:44.185Z,11.40
2023-04-23T02:38:12.180Z,11.40
2023-04-23T02:40:40.201Z,11.40
2023-04-23T02:43:08.440Z,11.30
2023-04-23T02:45:36.498Z,11.30
2023-04-23T02:48:04.900Z,11.30
2023-04-23T02:50:35.187Z,11.20
2023-04-23T02:53:03.577Z,11.20
2023-04-23T02:55:32.113Z,11.10
2023-04-23T02:58:00.476Z,11.10
2023-04-23T03:00:28.954Z,11.10
2023-04-23T03:02:57.312Z,11.00
2023-04-23T03:05:25.631Z,10.90
2023-04-23T03:07:55.097Z,10.90
2023-04-23T03:10:23.284Z,10.70
2023-04-23T03:12:51.375Z,10.90
2023-04-23T03:15:19.386Z,10.80
2023-04-23T03:17:47.683Z,10.90
2023-04-23T03:20:15.961Z,10.90
2023-04-23T03:22:43.982Z,10.90
2023-04-23T03:25:13.361Z,10.90
2023-04-23T03:27:42.446Z,10.80
2023-04-23T03:30:11.614Z,10.80
2023-04-23T03:32:39.845Z,10.80
2023-04-23T03:35:09.610Z,10.80
2023-04-23T03:37:37.705Z,10.80
2023-04-23T03:40:07.849Z,10.80
2023-04-23T03:42:37.770Z,10.80
2023-04-23T03:45:06.865Z,10.80
2023-04-23T03:47:34.998Z,10.80
2023-04-23T03:50:03.163Z,10.70
2023-04-23T03:52:31.228Z,10.80
2023-04-23T03:54:59.444Z,10.70
2023-04-23T03:57:27.563Z,10.70
2023-04-23T03:59:56.970Z,10.70
2023-04-23T04:02:25.146Z,10.60
2023-04-23T04:04:55.140Z,10.60
2023-04-23T04:07:23.495Z,10.60
2023-04-23T04:09:51.643Z,10.60
2023-04-23T04:12:19.678Z,10.50
2023-04-23T04:14:47.758Z,10.50
2023-04-23T04:17:17.133Z,10.40
2023-04-23T04:19:45.159Z,10.50
2023-04-23T04:22:13.394Z,10.40
2023-04-23T04:24:41.987Z,10.40
2023-04-23T04:27:11.708Z,10.40
2023-04-23T04:29:40.871Z,10.40
2023-04-23T04:32:09.446Z,10.40
2023-04-23T04:34:39.351Z,10.30
2023-04-23T04:37:07.762Z,10.30
2023-04-23T04:39:35.791Z,10.30
2023-04-23T04:42:03.928Z,10.30
2023-04-23T04:44:32.244Z,10.30
2023-04-23T04:47:00.798Z,10.30
2023-04-23T04:49:28.851Z,10.30
2023-04-23T04:51:58.348Z,10.30
2023-04-23T04:54:26.475Z,10.20
2023-04-23T04:56:54.606Z,10.40
2023-04-23T04:59:22.681Z,10.30
2023-04-23T05:01:50.837Z,10.30
2023-04-23T05:04:19.066Z,10.30
2023-04-23T05:06:47.200Z,10.30
2023-04-23T05:09:17.216Z,10.30
2023-04-23T05:11:45.381Z,10.30
2023-04-23T05:14:13.469Z,10.30
2023-04-23T05:16:41.595Z,10.30
2023-04-23T05:19:09.804Z,10.30
2023-04-23T05:21:37.860Z,10.30
2023-04-23T05:24:06.327Z,10.20
2023-04-23T05:26:35.811Z,10.30
2023-04-23T05:29:04.165Z,10.30
2023-04-23T05:31:32.990Z,10.30
2023-04-23T05:34:01.177Z,10.30
2023-04-23T05:36:29.199Z,10.40
2023-04-23T05:38:57.238Z,10.40
2023-04-23T05:41:26.074Z,10.50
2023-04-23T05:43:55.447Z,10.50
2023-04-23T05:46:24.647Z,10.50
2023-04-23T05:48:53.667Z,10.40
2023-04-23T05:51:21.816Z,10.40
2023-04-23T05:53:49.936Z,10.40
2023-04-23T05:56:17.957Z,10.40
2023-04-23T05:58:45.979Z,10.40
2023-04-23T06:01:15.419Z,10.40
2023-04-23T06:03:45.628Z,10.30
2023-04-23T06:06:14.611Z,10.30
2023-04-23T06:08:42.667Z,10.30
2023-04-23T06:11:10.754Z,10.30
2023-04-23T06:13:42.980Z,10.40
2023-04-23T06:16:11.869Z,10.40
2023-04-23T06:18:41.381Z,10.40
2023-04-23T06:21:10.521Z,10.50
2023-04-23T06:23:38.631Z,10.60
2023-04-23T06:26:06.893Z,10.90
2023-04-23T06:28:35.031Z,10.90
2023-04-23T06:31:03.938Z,11.00
2023-04-23T06:33:31.991Z,11.10
2023-04-23T06:36:01.835Z,11.30
2023-04-23T06:38:29.896Z,11.50
2023-04-23T06:40:58.878Z,11.50
2023-04-23T06:43:26.964Z,11.90
2023-04-23T06:45:55.027Z,12.20
2023-04-23T06:48:23.201Z,12.60
2023-04-23T06:50:51.882Z,13.10
2023-04-23T06:53:21.481Z,13.50
2023-04-23T06:55:50.315Z,13.60
2023-04-23T06:58:18.738Z,13.70
2023-04-23T07:00:47.030Z,13.70
2023-04-23T07:03:15.337Z,13.70
2023-04-23T07:05:43.514Z,13.70
2023-04-23T07:08:11.573Z,13.60
2023-04-23T07:10:41.093Z,13.70
2023-04-23T07:13:09.150Z,13.90
2023-04-23T07:15:38.081Z,13.90
2023-04-23T07:18:09.300Z,14.10
2023-04-23T07:20:37.511Z,14.30
2023-04-23T07:23:06.301Z,14.60
2023-04-23T07:25:34.406Z,14.60
2023-04-23T07:28:04.106Z,14.60
2023-04-23T07:30:32.497Z,14.50
2023-04-23T07:33:01.040Z,14.50
2023-04-23T07:35:29.227Z,14.60
2023-04-23T07:37:58.052Z,14.50
2023-04-23T07:40:26.659Z,14.60
2023-04-23T07:42:54.903Z,14.80
2023-04-23T07:45:24.366Z,14.80
2023-04-23T07:47:52.531Z,14.80
2023-04-23T07:50:20.838Z,14.90
2023-04-23T07:52:49.011Z,15.00
2023-04-23T07:55:17.662Z,15.10
2023-04-23T07:57:45.760Z,15.20
2023-04-23T08:00:14.696Z,15.40
2023-04-23T08:02:44.288Z,15.30
2023-04-23T08:05:12.549Z,15.90
2023-04-23T08:07:41.049Z,16.30
2023-04-23T08:10:09.986Z,16.80
2023-04-23T08:12:38.108Z,17.20
2023-04-23T08:15:07.117Z,18.10
2023-04-23T08:17:35.257Z,18.80
2023-04-23T08:20:06.639Z,19.60
2023-04-23T08:22:34.694Z,20.30
2023-04-23T08:25:02.853Z,21.20
2023-04-23T08:27:31.144Z,22.20
2023-04-23T08:29:59.267Z,23.50
2023-04-23T08:32:27.533Z,24.80
2023-04-23T08:34:55.722Z,25.50
2023-04-23T08:37:30.731Z,25.30
2023-04-23T08:39:59.318Z,26.10
2023-04-23T08:42:38.156Z,27.10
2023-04-23T08:45:07.206Z,26.30
2023-04-23T08:47:36.850Z,25.80
2023-04-23T08:50:06.586Z,27.10
2023-04-23T08:52:39.843Z,28.30
2023-04-23T08:55:11.224Z,28.80
2023-04-23T08:57:41.623Z,28.80
2023-04-23T09:00:11.730Z,28.50
2023-04-23T09:02:42.522Z,29.40
2023-04-23T09:05:11.511Z,30.60
2023-04-23T09:07:41.919Z,31.50
2023-04-23T09:10:12.979Z,31.80
2023-04-23T09:12:43.639Z,32.10
2023-04-23T09:15:12.834Z,30.80
2023-04-23T09:17:42.590Z,29.20
2023-04-23T09:20:12.420Z,27.40
2023-04-23T09:22:45.980Z,26.30
2023-04-23T09:25:17.463Z,26.20
2023-04-23T09:27:46.437Z,27.30
2023-04-23T09:30:15.724Z,28.10
2023-04-23T09:32:46.017Z,29.90
2023-04-23T09:35:15.712Z,31.20
2023-04-23T09:37:48.982Z,30.20
2023-04-23T09:40:21.531Z,28.30
2023-04-23T09:42:50.914Z,26.50
2023-04-23T09:45:19.409Z,25.70
2023-04-23T09:47:51.292Z,26.70
2023-04-23T09:50:19.842Z,27.00
2023-04-23T09:52:57.157Z,26.20
2023-04-23T09:55:35.584Z,26.20
2023-04-23T09:58:04.633Z,25.40
2023-04-23T10:00:37.145Z,24.70
2023-04-23T10:03:06.802Z,23.70
2023-04-23T10:05:59.343Z,23.30
2023-04-23T10:08:29.408Z,23.30
2023-04-23T10:11:13.725Z,24.10
2023-04-23T10:13:47.426Z,25.70
2023-04-23T10:16:22.590Z,27.70
2023-04-23T10:18:55.338Z,29.50
2023-04-23T10:21:26.465Z,28.80
2023-04-23T10:23:58.037Z,27.10
2023-04-23T10:26:26.957Z,26.80
2023-04-23T10:28:58.156Z,27.90
2023-04-23T10:31:26.642Z,27.70
2023-04-23T10:33:58.960Z,27.20
2023-04-23T10:36:29.181Z,26.70
2023-04-23T10:39:01.355Z,26.00
2023-04-23T10:41:36.481Z,25.50
2023-04-23T10:44:05.330Z,24.20
2023-04-23T10:46:36.444Z,22.90
2023-04-23T10:49:14.379Z,22.50
2023-04-23T10:52:10.193Z,22.00
2023-04-23T10:54:34.853Z,21.70
2023-04-23T10:57:04.222Z,21.40
2023-04-23T10:59:34.134Z,21.50
2023-04-23T11:02:08.728Z,21.30
2023-04-23T11:04:42.512Z,22.10
2023-04-23T11:07:11.521Z,23.30
2023-04-23T11:09:43.069Z,24.40
2023-04-23T11:12:13.576Z,25.70
2023-04-23T11:14:48.534Z,26.30
2023-04-23T11:17:18.375Z,25.80
2023-04-23T11:20:13.501Z,25.20
2023-04-23T11:22:44.057Z,24.10
2023-04-23T11:25:14.751Z,23.50
2023-04-23T11:27:44.660Z,24.00
2023-04-23T11:30:14.423Z,24.70
2023-04-23T11:32:43.279Z,24.80
2023-04-23T11:35:14.394Z,25.20
2023-04-23T11:37:44.336Z,24.70
2023-04-23T11:40:18.760Z,24.20
2023-04-23T11:42:47.823Z,24.40
2023-04-23T11:45:20.391Z,24.50
2023-04-23T11:47:50.916Z,23.90
2023-04-23T11:50:20.176Z,23.30
2023-04-23T11:52:48.888Z,23.20
2023-04-23T11:55:18.304Z,23.00
2023-04-23T11:57:47.930Z,22.10
2023-04-23T12:00:17.948Z,21.60
2023-04-23T12:02:56.655Z,21.70
2023-04-23T12:05:30.074Z,21.80
2023-04-23T12:08:09.604Z,21.70
2023-04-23T12:10:47.128Z,21.90
2023-04-23T12:13:16.449Z,22.20
2023-04-23T12:15:48.549Z,22.70
2023-04-23T12:18:16.749Z,22.70
2023-04-23T12:20:45.450Z,23.20
2023-04-23T12:23:13.692Z,23.70
2023-04-23T12:25:42.441Z,24.10
2023-04-23T12:28:11.949Z,24.10
2023-04-23T12:30:45.219Z,24.10
2023-04-23T12:33:13.477Z,23.80
2023-04-23T12:35:42.601Z,23.60
2023-04-23T12:38:23.866Z,23.20
2023-04-23T12:40:52.139Z,22.50
2023-04-23T12:43:21.775Z,22.20
2023-04-23T12:45:50.413Z,22.00
2023-04-23T12:48:18.604Z,21.30
2023-04-23T12:50:47.475Z,20.70
2023-04-23T12:53:15.750Z,20.40
2023-04-23T12:55:45.641Z,20.00
2023-04-23T12:58:13.860Z,19.80
2023-04-23T13:00:43.282Z,19.60
2023-04-23T13:03:13.854Z,19.30
2023-04-23T13:05:41.987Z,18.80
2023-04-23T13:08:10.444Z,18.70
2023-04-23T13:10:38.593Z,18.50
2023-04-23T13:13:06.616Z,18.70
2023-04-23T13:15:34.773Z,18.70
2023-04-23T13:18:04.265Z,18.70
2023-04-23T13:20:32.362Z,18.90
2023-04-23T13:23:01.517Z,18.80
2023-04-23T13:25:29.640Z,18.70
2023-04-23T13:27:57.816Z,18.50
2023-04-23T13:30:25.884Z,18.40
2023-04-23T13:32:55.624Z,18.30
2023-04-23T13:35:25.464Z,18.30
2023-04-23T13:37:53.617Z,18.30
2023-04-23T13:40:21.971Z,18.40
2023-04-23T13:42:51.079Z,19.10
2023-04-23T13:45:19.235Z,20.20
2023-04-23T13:47:47.906Z,21.00
2023-04-23T13:50:16.146Z,21.20
2023-04-23T13:52:45.661Z,21.60
2023-04-23T13:55:13.916Z,21.70
2023-04-23T13:57:42.462Z,22.30
2023-04-23T14:00:12.926Z,21.60
2023-04-23T14:02:41.665Z,20.90
2023-04-23T14:05:10.453Z,20.70
2023-04-23T14:07:38.551Z,20.50
2023-04-23T14:10:09.274Z,20.00
2023-04-23T14:12:38.676Z,19.90
2023-04-23T14:15:07.917Z,19.60
2023-04-23T14:17:37.274Z,19.50
2023-04-23T14:20:06.562Z,19.30
2023-04-23T14:22:34.787Z,19.20
2023-04-23T14:25:04.622Z,19.00
2023-04-23T14:27:40.682Z,19.00
2023-04-23T14:30:16.664Z,18.80
2023-04-23T14:32:47.612Z,18.70
2023-04-23T14:35:21.276Z,18.60
2023-04-23T14:37:57.596Z,19.00
2023-04-23T14:40:25.711Z,19.20
2023-04-23T14:42:57.127Z,19.50
2023-04-23T14:45:31.352Z,19.30
2023-04-23T14:47:59.569Z,19.30
2023-04-23T14:50:28.960Z,18.90
2023-04-23T14:52:59.082Z,18.50
2023-04-23T14:55:27.468Z,18.20
2023-04-23T14:57:56.949Z,17.80
2023-04-23T15:00:25.366Z,18.10
2023-04-23T15:02:53.702Z,18.40
2023-04-23T15:05:22.206Z,18.60
2023-04-23T15:07:51.499Z,18.60
2023-04-23T15:10:21.078Z,18.20
2023-04-23T15:13:02.595Z,18.20
2023-04-23T15:15:44.475Z,18.40
2023-04-23T15:18:14.578Z,18.40
2023-04-23T15:20:42.888Z,18.60
2023-04-23T15:23:11.632Z,18.50
2023-04-23T15:25:40.467Z,18.50
2023-04-23T15:28:10.015Z,18.40
2023-04-23T15:30:39.796Z,18.30
2023-04-23T15:33:08.038Z,18.20
2023-04-23T15:35:36.261Z,18.30
2023-04-23T15:38:04.392Z,18.40
2023-04-23T15:40:33.380Z,18.30
2023-04-23T15:43:01.655Z,18.40
2023-04-23T15:45:31.297Z,18.40
2023-04-23T15:47:59.609Z,18.30
2023-04-23T15:50:27.904Z,18.20
2023-04-23T15:52:58.346Z,18.20
2023-04-23T15:55:26.769Z,18.30
2023-04-23T15:57:55.230Z,18.20
2023-04-23T16:00:23.680Z,18.00
2023-04-23T16:02:53.599Z,18.00
2023-04-23T16:05:22.162Z,17.90
2023-04-23T16:07:50.263Z,17.80
2023-04-23T16:10:18.718Z,17.80
2023-04-23T16:12:48.646Z,17.70
2023-04-23T16:15:17.291Z,17.70
2023-04-23T16:17:45.833Z,17.60
2023-04-23T16:20:15.894Z,17.60
2023-04-23T16:22:44.004Z,17.50
2023-04-23T16:25:12.788Z,17.50
2023-04-23T16:27:41.326Z,17.40
2023-04-23T16:30:11.729Z,17.30
2023-04-23T16:32:40.079Z,17.30
2023-04-23T16:35:09.046Z,17.30
2023-04-23T16:37:39.021Z,17.20
2023-04-23T16:40:09.145Z,17.20
2023-04-23T16:42:37.405Z,17.20
2023-04-23T16:45:06.194Z,17.10
2023-04-23T16:47:34.623Z,17.10
2023-04-23T16:50:03.790Z,17.10
2023-04-23T16:52:31.907Z,17.00
2023-04-23T16:55:01.529Z,17.00
2023-04-23T16:57:30.159Z,16.90
2023-04-23T16:59:58.465Z,16.80
2023-04-23T17:02:26.776Z,16.80
2023-04-23T17:04:55.238Z,16.70
2023-04-23T17:07:23.647Z,16.70
2023-04-23T17:09:52.059Z,16.60
2023-04-23T17:12:22.286Z,16.60
2023-04-23T17:14:50.527Z,16.70
2023-04-23T17:17:18.605Z,16.60
2023-04-23T17:19:46.885Z,16.60
2023-04-23T17:22:15.491Z,16.60
2023-04-23T17:24:44.024Z,16.50
2023-04-23T17:27:12.554Z,16.60
2023-04-23T17:29:42.192Z,16.50
2023-04-23T17:32:10.478Z,16.50
2023-04-23T17:34:38.738Z,16.50
2023-04-23T17:37:07.024Z,16.40
2023-04-23T17:39:35.189Z,16.40
2023-04-23T17:42:03.429Z,16.40
2023-04-23T17:44:31.995Z,16.30
2023-04-23T17:47:01.888Z,16.30
2023-04-23T17:49:30.053Z,16.20
2023-04-23T17:51:58.210Z,16.20
2023-04-23T17:54:26.736Z,16.20
2023-04-23T17:56:54.936Z,16.20
2023-04-23T17:59:23.263Z,16.20
2023-04-23T18:01:54.961Z,16.10
2023-04-23T18:04:24.882Z,16.10
2023-04-23T18:06:53.391Z,16.10
2023-04-23T18:09:21.524Z,16.00
2023-04-23T18:11:49.675Z,16.00
2023-04-23T18:14:19.453Z,16.00
2023-04-23T18:16:47.536Z,16.00
2023-04-23T18:19:15.670Z,15.90
2023-04-23T18:21:45.982Z,15.90
2023-04-23T18:24:15.161Z,15.90
2023-04-23T18:26:43.341Z,15.80
2023-04-23T18:29:11.490Z,15.80
2023-04-23T18:31:39.743Z,15.80
2023-04-23T18:34:11.547Z,15.70
2023-04-23T18:36:42.759Z,15.70
2023-04-23T18:39:12.753Z,15.70
2023-04-23T18:41:40.860Z,15.70
2023-04-23T18:44:10.470Z,15.70
2023-04-23T18:46:40.132Z,15.70
2023-04-23T18:49:44.062Z,15.70
2023-04-23T18:52:12.585Z,15.70
2023-04-23T18:54:44.272Z,15.70
2023-04-23T18:57:12.387Z,15.60
2023-04-23T18:59:40.641Z,15.60
2023-04-23T19:02:09.409Z,15.50
2023-04-23T19:04:38.148Z,15.50
2023-04-23T19:07:06.553Z,15.20
2023-04-23T19:09:34.692Z,14.90
2023-04-23T19:12:04.260Z,14.60
2023-04-23T19:14:32.466Z,14.30
2023-04-23T19:17:00.880Z,14.10
2023-04-23T19:19:32.014Z,13.90
2023-04-23T19:22:03.260Z,13.70
2023-04-23T19:24:32.199Z,13.60
2023-04-23T19:27:00.977Z,13.40
2023-04-23T19:29:30.965Z,13.30
2023-04-23T19:31:59.124Z,13.10
2023-04-23T19:34:27.383Z,13.10
2023-04-23T19:36:55.502Z,13.00
2023-04-23T19:39:23.877Z,12.90
2023-04-23T19:41:52.089Z,12.90
2023-04-23T19:44:20.362Z,12.90
2023-04-23T19:46:49.937Z,12.80
2023-04-23T19:49:18.048Z,12.80
2023-04-23T19:51:46.900Z,12.80
2023-04-23T19:54:14.998Z,12.80
2023-04-23T19:56:43.165Z,12.80
2023-04-23T19:59:13.992Z,12.80
2023-04-23T20:01:42.315Z,12.80
2023-04-23T20:04:11.979Z,12.80
2023-04-23T20:09:25.503Z,12.80
2023-04-23T20:11:53.875Z,13.00
2023-04-23T20:14:22.394Z,13.00
2023-04-23T20:16:50.540Z,13.10
2023-04-23T20:19:20.291Z,13.10
2023-04-23T20:21:48.566Z,13.20
2023-04-23T20:24:16.803Z,13.20
2023-04-23T20:26:45.046Z,13.20
2023-04-23T20:29:13.123Z,13.10
2023-04-23T20:31:41.925Z,13.10
2023-04-23T20:34:11.026Z,13.10
2023-04-23T20:36:40.653Z,13.10
2023-04-23T20:39:09.500Z,13.20
2023-04-23T20:41:37.767Z,13.30
2023-04-23T20:44:06.633Z,13.30
2023-04-23T20:46:36.891Z,13.20
2023-04-23T20:49:05.512Z,13.20
2023-04-23T20:51:34.479Z,13.20
2023-04-23T20:54:04.200Z,13.20
2023-04-23T20:56:32.630Z,13.10
2023-04-23T20:59:01.190Z,13.10
2023-04-23T21:01:29.352Z,13.20
2023-04-23T21:04:00.127Z,13.20
2023-04-23T21:06:31.291Z,13.30
2023-04-23T21:08:59.585Z,13.30
2023-04-23T21:11:29.086Z,13.30
2023-04-23T21:13:59.508Z,13.30
2023-04-23T21:16:28.700Z,13.20
2023-04-23T21:18:56.764Z,13.20
2023-04-23T21:21:27.984Z,13.10
2023-04-23T21:23:56.605Z,13.00
2023-04-23T21:26:25.332Z,12.80
2023-04-23T21:28:54.994Z,12.80
2023-04-23T21:31:35.774Z,12.90
2023-04-23T21:34:03.883Z,12.90
2023-04-23T21:36:32.561Z,12.90
2023-04-23T21:39:01.788Z,12.80
2023-04-23T21:41:29.935Z,12.80
2023-04-23T21:43:59.400Z,12.90
2023-04-23T21:46:27.975Z,12.90
2023-04-23T21:48:56.487Z,13.00
2023-04-23T21:51:25.171Z,12.90
2023-04-23T21:53:53.233Z,13.00
2023-04-23T21:56:21.548Z,12.80
2023-04-23T21:58:49.736Z,12.80
2023-04-23T22:01:19.259Z,12.70
2023-04-23T22:03:47.970Z,12.60
2023-04-23T22:06:17.518Z,12.50
2023-04-23T22:08:46.365Z,12.50
2023-04-23T22:11:14.674Z,12.40
2023-04-23T22:13:42.742Z,12.40
2023-04-23T22:16:24.359Z,12.40
2023-04-23T22:18:57.125Z,12.40
2023-04-23T22:21:25.370Z,12.40
2023-04-23T22:23:53.504Z,12.40
2023-04-23T22:26:21.624Z,12.30
2023-04-23T22:28:49.686Z,12.30
2023-04-23T22:31:18.478Z,12.30
2023-04-23T22:33:46.627Z,12.30
2023-04-23T22:36:16.908Z,12.20
2023-04-23T22:38:44.929Z,12.40
2023-04-23T22:41:12.959Z,12.10
2023-04-23T22:43:41.005Z,12.10
2023-04-23T22:46:09.155Z,12.00
2023-04-23T22:48:43.986Z,12.00
2023-04-23T22:51:12.186Z,12.00
2023-04-23T22:53:41.889Z,12.10
2023-04-23T22:56:09.918Z,12.10
2023-04-23T22:58:38.186Z,12.10
2023-04-23T23:01:06.913Z,12.10
2023-04-23T23:03:35.109Z,12.10
2023-04-23T23:06:03.331Z,12.10
2023-04-23T23:08:31.341Z,12.20
2023-04-23T23:11:00.755Z,12.40
2023-04-23T23:13:29.112Z,12.20
2023-04-23T23:16:00.585Z,12.20
2023-04-23T23:18:28.738Z,12.10
2023-04-23T23:20:57.107Z,12.30
2023-04-23T23:23:25.267Z,12.00
2023-04-23T23:25:53.228Z,11.90
2023-04-23T23:28:22.960Z,11.90
2023-04-23T23:30:51.075Z,11.80
2023-04-23T23:33:19.726Z,11.80
2023-04-23T23:35:47.830Z,11.80
2023-04-23T23:38:15.951Z,11.80
2023-04-23T23:40:44.062Z,11.80
2023-04-23T23:43:12.306Z,11.80
2023-04-23T23:45:41.764Z,11.80
2023-04-23T23:48:09.889Z,11.80
2023-04-23T23:50:37.992Z,11.80
2023-04-23T23:53:06.098Z,11.60
2023-04-23T23:55:34.115Z,11.60
2023-04-23T23:58:02.457Z,11.60
